TAM8149 LPPT-SBGR
Flight info
| Callsign | TAM8149 |
|---|---|
| Flight time | N/A |
| Altitude | 31000 |
| Route | BEVOP DCT BAROK UN873 SAMAR N873 ODEGI/N0485F320 N873 IPERA UN873 SADBA/N0488F340 UN873 NTL DCT OPTUR DCT ASGIK UZ21 USIPA/N0478F360 UZ21 VUNOX |
| Aircraft | B77W/H-SDE1E2E3FGHIJ2J3J4J5M1RWXY/LB1D1 |
Departure
| Time | N/A |
|---|---|
| Airport | Lisbon Humberto Delgado Airport (LPPT) |
Arrival
| Time | 2026-05-06 00:40 |
|---|---|
| Airport | São Paulo/Guarulhos–Governor André Franco Montoro International Airport (SBGR) |
| Time | Latitude | Longitude | Altitude | Speed | Heading |
|---|---|---|---|---|---|
| 2026-05-05 17:49 | 20.43755 | -20.65365 | 31977 ft | 437 kts | 216° |
| 2026-05-05 17:49 | 20.41142 | -20.67035 | 31975 ft | 437 kts | 216° |
| 2026-05-05 17:50 | 20.35943 | -20.70354 | 31984 ft | 437 kts | 216° |
| 2026-05-05 17:50 | 20.30720 | -20.73677 | 31980 ft | 437 kts | 215° |
| 2026-05-05 17:51 | 20.25488 | -20.77000 | 31980 ft | 437 kts | 215° |
| 2026-05-05 17:51 | 20.20263 | -20.80317 | 31981 ft | 437 kts | 215° |
| 2026-05-05 17:52 | 20.15051 | -20.83625 | 31976 ft | 438 kts | 216° |
| 2026-05-05 17:52 | 20.09837 | -20.86933 | 31980 ft | 438 kts | 216° |
| 2026-05-05 17:53 | 20.04629 | -20.90234 | 31984 ft | 438 kts | 216° |
| 2026-05-05 17:53 | 19.99387 | -20.93554 | 31983 ft | 438 kts | 216° |
| 2026-05-05 17:54 | 19.94143 | -20.96872 | 31984 ft | 438 kts | 216° |
| 2026-05-05 17:54 | 19.88893 | -21.00193 | 31983 ft | 438 kts | 216° |
| 2026-05-05 17:55 | 19.83695 | -21.03477 | 31960 ft | 438 kts | 215° |
| 2026-05-05 17:55 | 19.78456 | -21.06784 | 31976 ft | 437 kts | 215° |
| 2026-05-05 17:56 | 19.73239 | -21.10075 | 31983 ft | 437 kts | 215° |
| 2026-05-05 17:56 | 19.67997 | -21.13379 | 31984 ft | 437 kts | 215° |
| 2026-05-05 17:57 | 19.62815 | -21.16644 | 31986 ft | 437 kts | 215° |
| 2026-05-05 17:57 | 19.58433 | -21.19402 | 31989 ft | 437 kts | 215° |
| 2026-05-05 17:58 | 19.53239 | -21.22670 | 31989 ft | 438 kts | 215° |
| 2026-05-05 17:58 | 19.48011 | -21.25956 | 31974 ft | 438 kts | 215° |
| 2026-05-05 17:59 | 19.42771 | -21.29247 | 31999 ft | 438 kts | 215° |
| 2026-05-05 17:59 | 19.37523 | -21.32540 | 31981 ft | 438 kts | 215° |
| 2026-05-05 18:00 | 19.32301 | -21.35815 | 31985 ft | 438 kts | 215° |
| 2026-05-05 18:00 | 19.27051 | -21.39105 | 31983 ft | 438 kts | 215° |
| 2026-05-05 18:01 | 19.21805 | -21.42390 | 32002 ft | 438 kts | 215° |
| 2026-05-05 18:01 | 19.16574 | -21.45663 | 32003 ft | 438 kts | 215° |
| 2026-05-05 18:02 | 19.11309 | -21.48954 | 31992 ft | 438 kts | 215° |
| 2026-05-05 18:02 | 19.06072 | -21.52227 | 31992 ft | 438 kts | 215° |
| 2026-05-05 18:03 | 19.00810 | -21.55512 | 31993 ft | 438 kts | 215° |
| 2026-05-05 18:03 | 18.95559 | -21.58787 | 31991 ft | 439 kts | 215° |
| 2026-05-05 18:04 | 18.90324 | -21.62051 | 31993 ft | 439 kts | 215° |
| 2026-05-05 18:04 | 18.85062 | -21.65329 | 31992 ft | 439 kts | 215° |
| 2026-05-05 18:05 | 18.79818 | -21.68593 | 31973 ft | 439 kts | 215° |
| 2026-05-05 18:05 | 18.74560 | -21.71864 | 31989 ft | 439 kts | 215° |
| 2026-05-05 18:06 | 18.69313 | -21.75125 | 31995 ft | 440 kts | 215° |
| 2026-05-05 18:06 | 18.64053 | -21.78392 | 31995 ft | 440 kts | 215° |
| 2026-05-05 18:07 | 18.58748 | -21.81684 | 31998 ft | 441 kts | 215° |
| 2026-05-05 18:07 | 18.53494 | -21.84942 | 31994 ft | 440 kts | 215° |
| 2026-05-05 18:08 | 18.48215 | -21.88214 | 31996 ft | 440 kts | 215° |
| 2026-05-05 18:08 | 18.42944 | -21.91478 | 31996 ft | 439 kts | 215° |
| 2026-05-05 18:09 | 18.37685 | -21.94733 | 31999 ft | 439 kts | 215° |
| 2026-05-05 18:09 | 18.32420 | -21.97989 | 31997 ft | 439 kts | 215° |
| 2026-05-05 18:10 | 18.27150 | -22.01246 | 31996 ft | 439 kts | 215° |
| 2026-05-05 18:10 | 18.21859 | -22.04513 | 31998 ft | 440 kts | 215° |
| 2026-05-05 18:11 | 18.16592 | -22.07763 | 31998 ft | 440 kts | 215° |
| 2026-05-05 18:11 | 18.11319 | -22.11016 | 31983 ft | 440 kts | 215° |
| 2026-05-05 18:12 | 18.06032 | -22.14273 | 31995 ft | 439 kts | 215° |
| 2026-05-05 18:12 | 18.00794 | -22.17498 | 31998 ft | 439 kts | 215° |
| 2026-05-05 18:13 | 17.95507 | -22.20751 | 31997 ft | 439 kts | 215° |
| 2026-05-05 18:13 | 17.90248 | -22.23985 | 31997 ft | 439 kts | 215° |
| 2026-05-05 18:14 | 17.84991 | -22.27216 | 32000 ft | 439 kts | 215° |
| 2026-05-05 18:14 | 17.79712 | -22.30458 | 32000 ft | 439 kts | 215° |
| 2026-05-05 18:15 | 17.74484 | -22.33665 | 31995 ft | 437 kts | 215° |
| 2026-05-05 18:15 | 17.69219 | -22.36894 | 31993 ft | 436 kts | 215° |
| 2026-05-05 18:16 | 17.63999 | -22.40093 | 31999 ft | 436 kts | 215° |
| 2026-05-05 18:16 | 17.58761 | -22.43301 | 32000 ft | 435 kts | 215° |
| 2026-05-05 18:17 | 17.53535 | -22.46500 | 32001 ft | 436 kts | 215° |
| 2026-05-05 18:17 | 17.48309 | -22.49696 | 31999 ft | 436 kts | 215° |
| 2026-05-05 18:18 | 17.43047 | -22.52912 | 31974 ft | 437 kts | 215° |
| 2026-05-05 18:18 | 17.37810 | -22.56110 | 31997 ft | 437 kts | 215° |
| 2026-05-05 18:19 | 17.32567 | -22.59310 | 32001 ft | 437 kts | 215° |
| 2026-05-05 18:19 | 17.27314 | -22.62515 | 32000 ft | 437 kts | 215° |
| 2026-05-05 18:20 | 17.22074 | -22.65709 | 31998 ft | 437 kts | 215° |
| 2026-05-05 18:20 | 17.16817 | -22.68910 | 32000 ft | 437 kts | 215° |
| 2026-05-05 18:21 | 17.11583 | -22.72097 | 32004 ft | 437 kts | 215° |
| 2026-05-05 18:21 | 17.06336 | -22.75289 | 31985 ft | 437 kts | 215° |
| 2026-05-05 18:22 | 17.01067 | -22.78492 | 31997 ft | 437 kts | 215° |
| 2026-05-05 18:22 | 16.95840 | -22.81668 | 32001 ft | 437 kts | 215° |
| 2026-05-05 18:23 | 16.90587 | -22.84858 | 31999 ft | 437 kts | 215° |
| 2026-05-05 18:23 | 16.85297 | -22.88068 | 31995 ft | 437 kts | 215° |
| 2026-05-05 18:24 | 16.80057 | -22.91246 | 31997 ft | 437 kts | 215° |
| 2026-05-05 18:24 | 16.74811 | -22.94425 | 31993 ft | 437 kts | 215° |
| 2026-05-05 18:25 | 16.69505 | -22.97584 | 31995 ft | 438 kts | 214° |
| 2026-05-05 18:25 | 16.64175 | -23.00684 | 31996 ft | 438 kts | 214° |
| 2026-05-05 18:26 | 16.58895 | -23.03752 | 31997 ft | 437 kts | 214° |
| 2026-05-05 18:26 | 16.53552 | -23.06865 | 31997 ft | 437 kts | 214° |
| 2026-05-05 18:27 | 16.48255 | -23.09954 | 31996 ft | 437 kts | 214° |
| 2026-05-05 18:27 | 16.42962 | -23.13040 | 31999 ft | 437 kts | 214° |
| 2026-05-05 18:28 | 16.34972 | -23.17697 | 32119 ft | 443 kts | 214° |
| 2026-05-05 18:28 | 16.32315 | -23.19244 | 32480 ft | 441 kts | 214° |
| 2026-05-05 18:28 | 16.29633 | -23.20802 | 33019 ft | 435 kts | 214° |
| 2026-05-05 18:29 | 16.27022 | -23.22318 | 33546 ft | 430 kts | 214° |
| 2026-05-05 18:29 | 16.24421 | -23.23829 | 33995 ft | 427 kts | 214° |
| 2026-05-05 18:29 | 16.19221 | -23.26855 | 34005 ft | 429 kts | 214° |
| 2026-05-05 18:30 | 16.14084 | -23.29840 | 33997 ft | 426 kts | 214° |
| 2026-05-05 18:30 | 16.08902 | -23.32850 | 34000 ft | 425 kts | 214° |
| 2026-05-05 18:31 | 16.03769 | -23.35829 | 33978 ft | 425 kts | 214° |
| 2026-05-05 18:31 | 15.98604 | -23.38826 | 33996 ft | 426 kts | 214° |
| 2026-05-05 18:32 | 15.93408 | -23.41838 | 34000 ft | 428 kts | 214° |
| 2026-05-05 18:32 | 15.88217 | -23.44846 | 34000 ft | 429 kts | 214° |
| 2026-05-05 18:33 | 15.82968 | -23.47884 | 33994 ft | 430 kts | 214° |
| 2026-05-05 18:33 | 15.77744 | -23.50906 | 33994 ft | 431 kts | 214° |
| 2026-05-05 18:34 | 15.72524 | -23.53924 | 33994 ft | 430 kts | 214° |
| 2026-05-05 18:34 | 15.67296 | -23.56945 | 33985 ft | 430 kts | 214° |
| 2026-05-05 18:35 | 15.62053 | -23.59973 | 33990 ft | 430 kts | 214° |
| 2026-05-05 18:35 | 15.56816 | -23.62996 | 33997 ft | 431 kts | 214° |
| 2026-05-05 18:36 | 15.51595 | -23.66008 | 33993 ft | 431 kts | 214° |
| 2026-05-05 18:36 | 15.46360 | -23.69026 | 33990 ft | 432 kts | 214° |
| 2026-05-05 18:37 | 15.41100 | -23.72056 | 33992 ft | 432 kts | 214° |
| 2026-05-05 18:37 | 15.35838 | -23.75086 | 33995 ft | 432 kts | 214° |
| 2026-05-05 18:38 | 15.30572 | -23.78117 | 33991 ft | 433 kts | 214° |
| 2026-05-05 18:38 | 15.25333 | -23.81131 | 33994 ft | 434 kts | 214° |
| 2026-05-05 18:39 | 15.20040 | -23.84173 | 33992 ft | 435 kts | 214° |
| 2026-05-05 18:39 | 15.14752 | -23.87211 | 33992 ft | 435 kts | 214° |
| 2026-05-05 18:40 | 15.09437 | -23.90263 | 33994 ft | 436 kts | 214° |
| 2026-05-05 18:40 | 15.04151 | -23.93296 | 33995 ft | 436 kts | 214° |
| 2026-05-05 18:41 | 14.98869 | -23.96325 | 33973 ft | 436 kts | 214° |
| 2026-05-05 18:41 | 14.93560 | -23.99369 | 33991 ft | 436 kts | 214° |
| 2026-05-05 18:42 | 14.88231 | -24.02422 | 33998 ft | 437 kts | 214° |
| 2026-05-05 18:42 | 14.82914 | -24.05466 | 33995 ft | 438 kts | 214° |
| 2026-05-05 18:43 | 14.77572 | -24.08523 | 33996 ft | 438 kts | 214° |
| 2026-05-05 18:43 | 14.72243 | -24.11570 | 33990 ft | 438 kts | 214° |
| 2026-05-05 18:44 | 14.66933 | -24.14605 | 33994 ft | 438 kts | 214° |
| 2026-05-05 18:44 | 14.61571 | -24.17668 | 33989 ft | 439 kts | 214° |
| 2026-05-05 18:45 | 14.56235 | -24.20715 | 33984 ft | 440 kts | 214° |
| 2026-05-05 18:45 | 14.50867 | -24.23778 | 33983 ft | 441 kts | 214° |
| 2026-05-05 18:46 | 14.45524 | -24.26825 | 33985 ft | 441 kts | 214° |
| 2026-05-05 18:46 | 14.40134 | -24.29897 | 33986 ft | 441 kts | 214° |
| 2026-05-05 18:47 | 14.34785 | -24.32944 | 34000 ft | 441 kts | 214° |
| 2026-05-05 18:47 | 14.29386 | -24.36018 | 33970 ft | 442 kts | 213° |
| 2026-05-05 18:48 | 14.24010 | -24.39078 | 33988 ft | 442 kts | 213° |
| 2026-05-05 18:48 | 14.18625 | -24.42141 | 33991 ft | 443 kts | 213° |
| 2026-05-05 18:49 | 14.13222 | -24.45212 | 33980 ft | 443 kts | 213° |
| 2026-05-05 18:49 | 14.07824 | -24.48278 | 33987 ft | 444 kts | 213° |
| 2026-05-05 18:50 | 14.03311 | -24.50841 | 33978 ft | 444 kts | 213° |
| 2026-05-05 18:50 | 13.97021 | -24.54412 | 33990 ft | 444 kts | 213° |
| 2026-05-05 18:51 | 13.92522 | -24.56965 | 33979 ft | 444 kts | 213° |
| 2026-05-05 18:51 | 13.87095 | -24.60042 | 33985 ft | 445 kts | 213° |
| 2026-05-05 18:52 | 13.81661 | -24.63119 | 33991 ft | 446 kts | 213° |
| 2026-05-05 18:52 | 13.76198 | -24.66211 | 33977 ft | 447 kts | 213° |
| 2026-05-05 18:53 | 13.70766 | -24.69285 | 33986 ft | 447 kts | 213° |
| 2026-05-05 18:53 | 13.65307 | -24.72373 | 33986 ft | 447 kts | 213° |
| 2026-05-05 18:54 | 13.59866 | -24.75449 | 33967 ft | 447 kts | 213° |
| 2026-05-05 18:54 | 13.54391 | -24.78543 | 33979 ft | 448 kts | 213° |
| 2026-05-05 18:55 | 13.48952 | -24.81615 | 33985 ft | 448 kts | 213° |
| 2026-05-05 18:55 | 13.43469 | -24.84711 | 33984 ft | 449 kts | 213° |
| 2026-05-05 18:56 | 13.37974 | -24.87811 | 33982 ft | 450 kts | 213° |
| 2026-05-05 18:56 | 13.32499 | -24.90899 | 33974 ft | 450 kts | 213° |
| 2026-05-05 18:57 | 13.27025 | -24.93984 | 33979 ft | 450 kts | 213° |
| 2026-05-05 18:57 | 13.21508 | -24.97091 | 33982 ft | 450 kts | 213° |
| 2026-05-05 18:58 | 13.16042 | -25.00169 | 33977 ft | 450 kts | 213° |
| 2026-05-05 18:58 | 13.10548 | -25.03261 | 33977 ft | 450 kts | 213° |
| 2026-05-05 18:59 | 13.05085 | -25.06334 | 33981 ft | 449 kts | 213° |
| 2026-05-05 18:59 | 12.99598 | -25.09418 | 33982 ft | 449 kts | 212° |
| 2026-05-05 19:00 | 12.94114 | -25.12500 | 33982 ft | 449 kts | 213° |
| 2026-05-05 19:00 | 12.88654 | -25.15566 | 33975 ft | 449 kts | 212° |
| 2026-05-05 19:01 | 12.83152 | -25.18655 | 33981 ft | 450 kts | 212° |
| 2026-05-05 19:01 | 12.77674 | -25.21729 | 33979 ft | 451 kts | 212° |
| 2026-05-05 19:02 | 12.72156 | -25.24823 | 33979 ft | 451 kts | 212° |
| 2026-05-05 19:02 | 12.66665 | -25.27901 | 33979 ft | 452 kts | 212° |
| 2026-05-05 19:03 | 12.61133 | -25.31000 | 33978 ft | 452 kts | 212° |
| 2026-05-05 19:03 | 12.55610 | -25.34092 | 33965 ft | 453 kts | 212° |
| 2026-05-05 19:04 | 12.50107 | -25.37172 | 33978 ft | 453 kts | 212° |
| 2026-05-05 19:04 | 12.44554 | -25.40279 | 33983 ft | 454 kts | 212° |
| 2026-05-05 19:05 | 12.39020 | -25.43373 | 33982 ft | 455 kts | 212° |
| 2026-05-05 19:05 | 12.33436 | -25.46493 | 33978 ft | 456 kts | 212° |
| 2026-05-05 19:06 | 12.27891 | -25.49590 | 33974 ft | 456 kts | 212° |
| 2026-05-05 19:06 | 12.22334 | -25.52692 | 33979 ft | 455 kts | 212° |
| 2026-05-05 19:07 | 12.16760 | -25.55803 | 33972 ft | 456 kts | 212° |
| 2026-05-05 19:07 | 12.11204 | -25.58902 | 33976 ft | 456 kts | 212° |
| 2026-05-05 19:08 | 12.05605 | -25.62024 | 33975 ft | 457 kts | 211° |
| 2026-05-05 19:08 | 12.00043 | -25.65123 | 33982 ft | 457 kts | 211° |
| 2026-05-05 19:09 | 11.94446 | -25.68240 | 33979 ft | 458 kts | 211° |
| 2026-05-05 19:09 | 11.88873 | -25.71342 | 33978 ft | 457 kts | 211° |
| 2026-05-05 19:10 | 11.83268 | -25.74461 | 33972 ft | 457 kts | 211° |
| 2026-05-05 19:10 | 11.77702 | -25.77557 | 33982 ft | 457 kts | 211° |
| 2026-05-05 19:11 | 11.72105 | -25.80668 | 33979 ft | 458 kts | 211° |
| 2026-05-05 19:11 | 11.66535 | -25.83763 | 33975 ft | 458 kts | 211° |
| 2026-05-05 19:12 | 11.60931 | -25.86876 | 33978 ft | 458 kts | 211° |
| 2026-05-05 19:12 | 11.55344 | -25.89977 | 33978 ft | 458 kts | 211° |
| 2026-05-05 19:13 | 11.49730 | -25.93093 | 33970 ft | 458 kts | 211° |
| 2026-05-05 19:13 | 11.44120 | -25.96204 | 33972 ft | 459 kts | 210° |
| 2026-05-05 19:14 | 11.38544 | -25.99295 | 33980 ft | 459 kts | 210° |
| 2026-05-05 19:14 | 11.32924 | -26.02409 | 33977 ft | 459 kts | 210° |
| 2026-05-05 19:15 | 11.27295 | -26.05527 | 33979 ft | 459 kts | 210° |
| 2026-05-05 19:15 | 11.21709 | -26.08620 | 33979 ft | 459 kts | 210° |
| 2026-05-05 19:16 | 11.16086 | -26.11732 | 33970 ft | 459 kts | 210° |
| 2026-05-05 19:16 | 11.10501 | -26.14821 | 33973 ft | 459 kts | 210° |
| 2026-05-05 19:17 | 11.04887 | -26.17924 | 33987 ft | 459 kts | 210° |
| 2026-05-05 19:17 | 10.99296 | -26.21014 | 33982 ft | 459 kts | 210° |
| 2026-05-05 19:18 | 10.93680 | -26.24117 | 33971 ft | 459 kts | 210° |
| 2026-05-05 19:18 | 10.88058 | -26.27222 | 33971 ft | 459 kts | 210° |
| 2026-05-05 19:19 | 10.82443 | -26.30321 | 33970 ft | 459 kts | 210° |
| 2026-05-05 19:19 | 10.76860 | -26.33400 | 33989 ft | 459 kts | 210° |
| 2026-05-05 19:20 | 10.71236 | -26.36502 | 33989 ft | 459 kts | 210° |
| 2026-05-05 19:20 | 10.65660 | -26.39575 | 33984 ft | 459 kts | 210° |
| 2026-05-05 19:21 | 10.60040 | -26.42672 | 33985 ft | 459 kts | 210° |
| 2026-05-05 19:21 | 10.54416 | -26.45769 | 33987 ft | 459 kts | 210° |
| 2026-05-05 19:22 | 10.48827 | -26.48847 | 33986 ft | 459 kts | 210° |
| 2026-05-05 19:22 | 10.43191 | -26.51948 | 33981 ft | 459 kts | 209° |
| 2026-05-05 19:23 | 10.37583 | -26.55033 | 33983 ft | 460 kts | 209° |
| 2026-05-05 19:23 | 10.31949 | -26.58130 | 33984 ft | 460 kts | 209° |
| 2026-05-05 19:24 | 10.26332 | -26.61217 | 33982 ft | 461 kts | 209° |
| 2026-05-05 19:24 | 10.20692 | -26.64317 | 33982 ft | 460 kts | 209° |
| 2026-05-05 19:25 | 10.15046 | -26.67417 | 33979 ft | 460 kts | 209° |
| 2026-05-05 19:25 | 10.09451 | -26.70488 | 33974 ft | 460 kts | 209° |
| 2026-05-05 19:26 | 10.03805 | -26.73587 | 33982 ft | 460 kts | 209° |
| 2026-05-05 19:26 | 9.98148 | -26.76690 | 33981 ft | 461 kts | 209° |
| 2026-05-05 19:27 | 9.92529 | -26.79770 | 33986 ft | 461 kts | 209° |
| 2026-05-05 19:27 | 9.86879 | -26.82867 | 33980 ft | 461 kts | 209° |
| 2026-05-05 19:28 | 9.81217 | -26.85969 | 33981 ft | 461 kts | 209° |
| 2026-05-05 19:28 | 9.75596 | -26.89048 | 33985 ft | 461 kts | 208° |
| 2026-05-05 19:29 | 9.69942 | -26.92143 | 33985 ft | 461 kts | 208° |
| 2026-05-05 19:29 | 9.64320 | -26.95220 | 33979 ft | 460 kts | 208° |
| 2026-05-05 19:30 | 9.58679 | -26.98306 | 33987 ft | 460 kts | 208° |
| 2026-05-05 19:30 | 9.53045 | -27.01386 | 33986 ft | 459 kts | 208° |
| 2026-05-05 19:31 | 9.47440 | -27.04450 | 33984 ft | 459 kts | 208° |
| 2026-05-05 19:31 | 9.41838 | -27.07511 | 33972 ft | 459 kts | 208° |
| 2026-05-05 19:32 | 9.36192 | -27.10595 | 33982 ft | 460 kts | 208° |
| 2026-05-05 19:32 | 9.30545 | -27.13679 | 33986 ft | 461 kts | 208° |
| 2026-05-05 19:33 | 9.24927 | -27.16745 | 33981 ft | 462 kts | 208° |
| 2026-05-05 19:33 | 9.19261 | -27.19837 | 33984 ft | 462 kts | 208° |
| 2026-05-05 19:34 | 9.13598 | -27.22925 | 33981 ft | 462 kts | 208° |
| 2026-05-05 19:35 | 9.05121 | -27.27547 | 33971 ft | 462 kts | 208° |
| 2026-05-05 19:35 | 8.99449 | -27.30639 | 33980 ft | 462 kts | 208° |
| 2026-05-05 19:36 | 8.93807 | -27.33713 | 33986 ft | 462 kts | 208° |
| 2026-05-05 19:36 | 8.88147 | -27.36793 | 33985 ft | 462 kts | 208° |
| 2026-05-05 19:37 | 8.82486 | -27.39873 | 33983 ft | 462 kts | 208° |
| 2026-05-05 19:37 | 8.76844 | -27.42942 | 33986 ft | 462 kts | 208° |
| 2026-05-05 19:38 | 8.71200 | -27.46012 | 33977 ft | 462 kts | 208° |
| 2026-05-05 19:38 | 8.66469 | -27.48584 | 33984 ft | 462 kts | 208° |
| 2026-05-05 19:39 | 8.60812 | -27.51659 | 33982 ft | 463 kts | 208° |
| 2026-05-05 19:39 | 8.54206 | -27.55249 | 33981 ft | 463 kts | 208° |
| 2026-05-05 19:40 | 8.49467 | -27.57823 | 33981 ft | 463 kts | 208° |
| 2026-05-05 19:40 | 8.43782 | -27.60910 | 33981 ft | 463 kts | 208° |
| 2026-05-05 19:41 | 8.38119 | -27.63985 | 33975 ft | 463 kts | 208° |
| 2026-05-05 19:41 | 8.32417 | -27.67079 | 33979 ft | 463 kts | 208° |
| 2026-05-05 19:42 | 8.26760 | -27.70148 | 33977 ft | 464 kts | 208° |
| 2026-05-05 19:42 | 8.21057 | -27.73241 | 33978 ft | 464 kts | 208° |
| 2026-05-05 19:43 | 8.15391 | -27.76313 | 33975 ft | 464 kts | 208° |
| 2026-05-05 19:43 | 8.09695 | -27.79399 | 33976 ft | 464 kts | 208° |
| 2026-05-05 19:44 | 8.04023 | -27.82472 | 33974 ft | 464 kts | 208° |
| 2026-05-05 19:44 | 7.98342 | -27.85549 | 33976 ft | 465 kts | 208° |
| 2026-05-05 19:45 | 7.92618 | -27.88649 | 33975 ft | 466 kts | 208° |
| 2026-05-05 19:45 | 7.86914 | -27.91736 | 33977 ft | 466 kts | 208° |
| 2026-05-05 19:46 | 7.81230 | -27.94812 | 33975 ft | 466 kts | 208° |
| 2026-05-05 19:46 | 7.75508 | -27.97907 | 33979 ft | 466 kts | 208° |
| 2026-05-05 19:47 | 7.69782 | -28.01003 | 33976 ft | 466 kts | 208° |
| 2026-05-05 19:47 | 7.64073 | -28.04090 | 33979 ft | 467 kts | 208° |
| 2026-05-05 19:48 | 7.58338 | -28.07189 | 33975 ft | 467 kts | 208° |
| 2026-05-05 19:48 | 7.52596 | -28.10291 | 33975 ft | 467 kts | 208° |
| 2026-05-05 19:49 | 7.46888 | -28.13374 | 33970 ft | 468 kts | 208° |
| 2026-05-05 19:49 | 7.41138 | -28.16480 | 33973 ft | 468 kts | 208° |
| 2026-05-05 19:50 | 7.35434 | -28.19560 | 33974 ft | 468 kts | 207° |
| 2026-05-05 19:50 | 7.29674 | -28.22668 | 33976 ft | 468 kts | 207° |
| 2026-05-05 19:51 | 7.23953 | -28.25752 | 33975 ft | 468 kts | 207° |
| 2026-05-05 19:51 | 7.18193 | -28.28856 | 33975 ft | 468 kts | 207° |
| 2026-05-05 19:52 | 7.12436 | -28.31960 | 33975 ft | 468 kts | 207° |
| 2026-05-05 19:52 | 7.06725 | -28.35038 | 33978 ft | 468 kts | 207° |
| 2026-05-05 19:53 | 7.00970 | -28.38139 | 33974 ft | 468 kts | 207° |
| 2026-05-05 19:53 | 6.95215 | -28.41239 | 33974 ft | 468 kts | 207° |
| 2026-05-05 19:54 | 6.89505 | -28.44314 | 33976 ft | 468 kts | 207° |
| 2026-05-05 19:54 | 6.83749 | -28.47413 | 33975 ft | 468 kts | 207° |
| 2026-05-05 19:55 | 6.78001 | -28.50506 | 33979 ft | 468 kts | 207° |
| 2026-05-05 19:55 | 6.72254 | -28.53599 | 33981 ft | 468 kts | 207° |
| 2026-05-05 19:56 | 6.66548 | -28.56668 | 33971 ft | 468 kts | 207° |
| 2026-05-05 19:56 | 6.60800 | -28.59759 | 33982 ft | 468 kts | 207° |
| 2026-05-05 19:57 | 6.55054 | -28.62848 | 33974 ft | 468 kts | 207° |
| 2026-05-05 19:57 | 6.49301 | -28.65940 | 33972 ft | 468 kts | 207° |
| 2026-05-05 19:58 | 6.43577 | -28.69016 | 33981 ft | 468 kts | 207° |
| 2026-05-05 19:58 | 6.37825 | -28.72106 | 33978 ft | 468 kts | 207° |
| 2026-05-05 19:59 | 6.32098 | -28.75182 | 33977 ft | 469 kts | 207° |
| 2026-05-05 19:59 | 6.26341 | -28.78273 | 33972 ft | 469 kts | 207° |
| 2026-05-05 20:00 | 6.20580 | -28.81366 | 33973 ft | 469 kts | 207° |
| 2026-05-05 20:00 | 6.14813 | -28.84461 | 33983 ft | 469 kts | 207° |
| 2026-05-05 20:00 | 6.11955 | -28.85994 | 34089 ft | 472 kts | 207° |
| 2026-05-05 20:01 | 6.09049 | -28.87553 | 34361 ft | 472 kts | 207° |
| 2026-05-05 20:01 | 6.06140 | -28.89113 | 34702 ft | 470 kts | 207° |
| 2026-05-05 20:01 | 6.03300 | -28.90637 | 35040 ft | 468 kts | 208° |
| 2026-05-05 20:01 | 6.00426 | -28.92178 | 35365 ft | 466 kts | 208° |
| 2026-05-05 20:02 | 5.97559 | -28.93716 | 35641 ft | 466 kts | 208° |
| 2026-05-05 20:02 | 5.94692 | -28.95253 | 35869 ft | 466 kts | 208° |
| 2026-05-05 20:02 | 5.91860 | -28.96771 | 35901 ft | 469 kts | 208° |
| 2026-05-05 20:03 | 5.86112 | -28.99852 | 35966 ft | 467 kts | 208° |
| 2026-05-05 20:03 | 5.80367 | -29.02931 | 35974 ft | 465 kts | 208° |
| 2026-05-05 20:04 | 5.74709 | -29.05962 | 35978 ft | 463 kts | 208° |
| 2026-05-05 20:04 | 5.68996 | -29.09022 | 35976 ft | 463 kts | 208° |
| 2026-05-05 20:05 | 5.63317 | -29.12064 | 35971 ft | 463 kts | 208° |
| 2026-05-05 20:05 | 5.57652 | -29.15097 | 35973 ft | 464 kts | 208° |
| 2026-05-05 20:06 | 5.51932 | -29.18159 | 35973 ft | 466 kts | 208° |
| 2026-05-05 20:06 | 5.46198 | -29.21228 | 35975 ft | 467 kts | 208° |
| 2026-05-05 20:07 | 5.40492 | -29.24280 | 35973 ft | 468 kts | 208° |
| 2026-05-05 20:07 | 5.34731 | -29.27362 | 35973 ft | 468 kts | 208° |
| 2026-05-05 20:08 | 5.28971 | -29.30443 | 35975 ft | 469 kts | 208° |
| 2026-05-05 20:08 | 5.23225 | -29.33515 | 35976 ft | 469 kts | 208° |
| 2026-05-05 20:09 | 5.17460 | -29.36597 | 35976 ft | 469 kts | 208° |
| 2026-05-05 20:09 | 5.11701 | -29.39676 | 35971 ft | 469 kts | 208° |
| 2026-05-05 20:10 | 5.05932 | -29.42758 | 35972 ft | 469 kts | 208° |
| 2026-05-05 20:10 | 5.00197 | -29.45822 | 35973 ft | 468 kts | 208° |
| 2026-05-05 20:11 | 4.94463 | -29.48885 | 35972 ft | 468 kts | 208° |
| 2026-05-05 20:11 | 4.88874 | -29.51870 | 35973 ft | 468 kts | 208° |
| 2026-05-05 20:12 | 4.83148 | -29.54927 | 35970 ft | 468 kts | 208° |
| 2026-05-05 20:12 | 4.77376 | -29.58009 | 35971 ft | 468 kts | 208° |
| 2026-05-05 20:13 | 4.71655 | -29.61062 | 35970 ft | 468 kts | 208° |
| 2026-05-05 20:13 | 4.65897 | -29.64135 | 35973 ft | 468 kts | 208° |
| 2026-05-05 20:14 | 4.60131 | -29.67212 | 35975 ft | 469 kts | 207° |
| 2026-05-05 20:14 | 4.54395 | -29.70272 | 35972 ft | 469 kts | 207° |
| 2026-05-05 20:15 | 4.48629 | -29.73347 | 35967 ft | 469 kts | 207° |
| 2026-05-05 20:15 | 4.42849 | -29.76429 | 35966 ft | 470 kts | 207° |
| 2026-05-05 20:16 | 4.37106 | -29.79491 | 35974 ft | 470 kts | 207° |
| 2026-05-05 20:16 | 4.31310 | -29.82581 | 35973 ft | 470 kts | 207° |
| 2026-05-05 20:17 | 4.25566 | -29.85643 | 35972 ft | 470 kts | 207° |
| 2026-05-05 20:17 | 4.19788 | -29.88722 | 35970 ft | 470 kts | 207° |
| 2026-05-05 20:18 | 4.14050 | -29.91780 | 35969 ft | 469 kts | 207° |
| 2026-05-05 20:18 | 4.08275 | -29.94857 | 35973 ft | 469 kts | 207° |
| 2026-05-05 20:19 | 4.02501 | -29.97933 | 35971 ft | 469 kts | 207° |
| 2026-05-05 20:19 | 3.96739 | -30.00999 | 35970 ft | 469 kts | 207° |
| 2026-05-05 20:20 | 3.90988 | -30.04055 | 35976 ft | 469 kts | 207° |
| 2026-05-05 20:20 | 3.85253 | -30.07102 | 35972 ft | 469 kts | 207° |
| 2026-05-05 20:21 | 3.79472 | -30.10175 | 35969 ft | 469 kts | 207° |
| 2026-05-05 20:21 | 3.73722 | -30.13231 | 35969 ft | 469 kts | 207° |
| 2026-05-05 20:22 | 3.67966 | -30.16290 | 35970 ft | 469 kts | 207° |
| 2026-05-05 20:22 | 3.62220 | -30.19343 | 35972 ft | 469 kts | 207° |
| 2026-05-05 20:23 | 3.56474 | -30.22395 | 35971 ft | 469 kts | 207° |
| 2026-05-05 20:23 | 3.50699 | -30.25463 | 35973 ft | 469 kts | 207° |
| 2026-05-05 20:24 | 3.44931 | -30.28526 | 35973 ft | 469 kts | 207° |
| 2026-05-05 20:24 | 3.39166 | -30.31588 | 35972 ft | 469 kts | 207° |
| 2026-05-05 20:25 | 3.33410 | -30.34644 | 35971 ft | 469 kts | 207° |
| 2026-05-05 20:25 | 3.27665 | -30.37694 | 35971 ft | 469 kts | 207° |
| 2026-05-05 20:26 | 3.21929 | -30.40738 | 35969 ft | 468 kts | 207° |
| 2026-05-05 20:26 | 3.16173 | -30.43794 | 35969 ft | 468 kts | 207° |
| 2026-05-05 20:27 | 3.10420 | -30.46846 | 35969 ft | 468 kts | 207° |
| 2026-05-05 20:27 | 3.04660 | -30.49903 | 35970 ft | 468 kts | 207° |
| 2026-05-05 20:28 | 2.98921 | -30.52948 | 35972 ft | 468 kts | 207° |
| 2026-05-05 20:28 | 2.93170 | -30.55999 | 35973 ft | 467 kts | 207° |
| 2026-05-05 20:29 | 2.87450 | -30.59033 | 35973 ft | 468 kts | 207° |
| 2026-05-05 20:29 | 2.81689 | -30.62088 | 35973 ft | 468 kts | 207° |
| 2026-05-05 20:30 | 2.75967 | -30.65122 | 35971 ft | 468 kts | 207° |
| 2026-05-05 20:30 | 2.71162 | -30.67671 | 35973 ft | 468 kts | 207° |
| 2026-05-05 20:31 | 2.64460 | -30.71224 | 35973 ft | 468 kts | 207° |
| 2026-05-05 20:31 | 2.59660 | -30.73769 | 35973 ft | 468 kts | 207° |
| 2026-05-05 20:32 | 2.53905 | -30.76820 | 35974 ft | 468 kts | 207° |
| 2026-05-05 20:32 | 2.48136 | -30.79877 | 35973 ft | 468 kts | 207° |
| 2026-05-05 20:33 | 2.42401 | -30.82917 | 35971 ft | 468 kts | 207° |
| 2026-05-05 20:33 | 2.36664 | -30.85958 | 35973 ft | 468 kts | 207° |
| 2026-05-05 20:34 | 2.30900 | -30.89013 | 35972 ft | 468 kts | 207° |
| 2026-05-05 20:34 | 2.25169 | -30.92050 | 35975 ft | 467 kts | 207° |
| 2026-05-05 20:35 | 2.19420 | -30.95093 | 35969 ft | 467 kts | 207° |
| 2026-05-05 20:35 | 2.13699 | -30.98119 | 35972 ft | 467 kts | 207° |
| 2026-05-05 20:36 | 2.07939 | -31.01167 | 35970 ft | 467 kts | 207° |
| 2026-05-05 20:36 | 2.02188 | -31.04210 | 35970 ft | 467 kts | 207° |
| 2026-05-05 20:37 | 1.96459 | -31.07242 | 35973 ft | 467 kts | 207° |
| 2026-05-05 20:37 | 1.90712 | -31.10282 | 35974 ft | 467 kts | 207° |
| 2026-05-05 20:38 | 1.84970 | -31.13321 | 35972 ft | 467 kts | 207° |
| 2026-05-05 20:38 | 1.79216 | -31.16365 | 35969 ft | 467 kts | 207° |
| 2026-05-05 20:39 | 1.73475 | -31.19402 | 35971 ft | 467 kts | 207° |
| 2026-05-05 20:39 | 1.67743 | -31.22434 | 35970 ft | 467 kts | 207° |
| 2026-05-05 20:40 | 1.61996 | -31.25474 | 35973 ft | 467 kts | 207° |
| 2026-05-05 20:40 | 1.56282 | -31.28496 | 35972 ft | 467 kts | 207° |
| 2026-05-05 20:41 | 1.50518 | -31.31545 | 35971 ft | 467 kts | 207° |
| 2026-05-05 20:41 | 1.44796 | -31.34571 | 35973 ft | 467 kts | 207° |
| 2026-05-05 20:42 | 1.39028 | -31.37621 | 35969 ft | 467 kts | 207° |
| 2026-05-05 20:42 | 1.33307 | -31.40646 | 35970 ft | 467 kts | 207° |
| 2026-05-05 20:43 | 1.27593 | -31.43667 | 35979 ft | 466 kts | 208° |
| 2026-05-05 20:43 | 1.21843 | -31.46708 | 35973 ft | 465 kts | 208° |
| 2026-05-05 20:44 | 1.16142 | -31.49722 | 35974 ft | 464 kts | 208° |
| 2026-05-05 20:44 | 1.10427 | -31.52743 | 35974 ft | 464 kts | 207° |
| 2026-05-05 20:45 | 0.96287 | -31.60218 | 35977 ft | 464 kts | 208° |
| 2026-05-05 20:46 | 0.90579 | -31.63235 | 35978 ft | 463 kts | 208° |
| 2026-05-05 20:46 | 0.84894 | -31.66241 | 35974 ft | 463 kts | 208° |
| 2026-05-05 20:47 | 0.79200 | -31.69251 | 35975 ft | 462 kts | 208° |
| 2026-05-05 20:47 | 0.73523 | -31.72252 | 35975 ft | 462 kts | 208° |
| 2026-05-05 20:48 | 0.67850 | -31.75250 | 35975 ft | 461 kts | 208° |
| 2026-05-05 20:48 | 0.62220 | -31.78226 | 35973 ft | 461 kts | 208° |
| 2026-05-05 20:49 | 0.56528 | -31.81235 | 35977 ft | 462 kts | 208° |
| 2026-05-05 20:49 | 0.50834 | -31.84245 | 35976 ft | 462 kts | 208° |
| 2026-05-05 20:50 | 0.45165 | -31.87241 | 35975 ft | 462 kts | 208° |
| 2026-05-05 20:50 | 0.39496 | -31.90238 | 35976 ft | 463 kts | 208° |
| 2026-05-05 20:51 | 0.33785 | -31.93261 | 35972 ft | 463 kts | 208° |
| 2026-05-05 20:51 | 0.28099 | -31.96270 | 35970 ft | 464 kts | 208° |
| 2026-05-05 20:52 | 0.22381 | -31.99297 | 35978 ft | 464 kts | 208° |
| 2026-05-05 20:52 | 0.16666 | -32.02322 | 35979 ft | 465 kts | 208° |
| 2026-05-05 20:53 | 0.10973 | -32.05335 | 35976 ft | 465 kts | 208° |
| 2026-05-05 20:53 | 0.05232 | -32.08374 | 35979 ft | 466 kts | 208° |
| 2026-05-05 20:54 | -0.00487 | -32.11401 | 35978 ft | 466 kts | 207° |
| 2026-05-05 20:54 | -0.06235 | -32.14443 | 35972 ft | 467 kts | 207° |
| 2026-05-05 20:55 | -0.11984 | -32.17486 | 35980 ft | 467 kts | 207° |
| 2026-05-05 20:55 | -0.17705 | -32.20514 | 35982 ft | 468 kts | 207° |
| 2026-05-05 20:56 | -0.23461 | -32.23561 | 35978 ft | 468 kts | 207° |
| 2026-05-05 20:56 | -0.29237 | -32.26618 | 35978 ft | 469 kts | 207° |
| 2026-05-05 20:57 | -0.34964 | -32.29650 | 35975 ft | 469 kts | 207° |
| 2026-05-05 20:57 | -0.40745 | -32.32709 | 35975 ft | 468 kts | 207° |
| 2026-05-05 20:58 | -0.46479 | -32.35745 | 35976 ft | 468 kts | 207° |
| 2026-05-05 20:58 | -0.52242 | -32.38795 | 35978 ft | 468 kts | 207° |
| 2026-05-05 20:59 | -0.58012 | -32.41849 | 35978 ft | 468 kts | 207° |
| 2026-05-05 20:59 | -0.63743 | -32.44883 | 35979 ft | 468 kts | 207° |
| 2026-05-05 21:00 | -0.69511 | -32.47937 | 35974 ft | 469 kts | 207° |
| 2026-05-05 21:00 | -0.75258 | -32.50979 | 35983 ft | 470 kts | 207° |
| 2026-05-05 21:01 | -0.81044 | -32.54043 | 35982 ft | 471 kts | 207° |
| 2026-05-05 21:01 | -0.86859 | -32.57121 | 35979 ft | 471 kts | 207° |
| 2026-05-05 21:02 | -0.92616 | -32.60169 | 35981 ft | 472 kts | 207° |
| 2026-05-05 21:02 | -0.98429 | -32.63247 | 35974 ft | 472 kts | 208° |
| 2026-05-05 21:03 | -1.04247 | -32.66327 | 35979 ft | 473 kts | 208° |
| 2026-05-05 21:03 | -1.10036 | -32.69393 | 35982 ft | 473 kts | 208° |
| 2026-05-05 21:04 | -1.15858 | -32.72476 | 35981 ft | 473 kts | 208° |
| 2026-05-05 21:04 | -1.21688 | -32.75564 | 35982 ft | 473 kts | 208° |
| 2026-05-05 21:05 | -1.27468 | -32.78626 | 35978 ft | 473 kts | 208° |
| 2026-05-05 21:05 | -1.33281 | -32.81705 | 35981 ft | 472 kts | 208° |
| 2026-05-05 21:06 | -1.39114 | -32.84794 | 35980 ft | 472 kts | 208° |
| 2026-05-05 21:06 | -1.44890 | -32.87852 | 35977 ft | 472 kts | 208° |
| 2026-05-05 21:07 | -1.50704 | -32.90931 | 35977 ft | 472 kts | 208° |
| 2026-05-05 21:07 | -1.56516 | -32.94011 | 35974 ft | 473 kts | 208° |
| 2026-05-05 21:08 | -1.62305 | -32.97078 | 35978 ft | 473 kts | 208° |
| 2026-05-05 21:08 | -1.68127 | -33.00163 | 35976 ft | 473 kts | 208° |
| 2026-05-05 21:09 | -1.73954 | -33.03251 | 35977 ft | 473 kts | 208° |
| 2026-05-05 21:09 | -1.79787 | -33.06342 | 35978 ft | 473 kts | 208° |
| 2026-05-05 21:10 | -1.85615 | -33.09431 | 35976 ft | 473 kts | 208° |
| 2026-05-05 21:10 | -1.91407 | -33.12502 | 35978 ft | 473 kts | 208° |
| 2026-05-05 21:11 | -1.97241 | -33.15594 | 35975 ft | 473 kts | 209° |
| 2026-05-05 21:11 | -2.03036 | -33.18666 | 35980 ft | 473 kts | 209° |
| 2026-05-05 21:12 | -2.08864 | -33.21756 | 35978 ft | 473 kts | 209° |
| 2026-05-05 21:12 | -2.14650 | -33.24824 | 35977 ft | 473 kts | 209° |
| 2026-05-05 21:13 | -2.20470 | -33.27910 | 35978 ft | 472 kts | 209° |
| 2026-05-05 21:13 | -2.26291 | -33.30997 | 35981 ft | 472 kts | 209° |
| 2026-05-05 21:14 | -2.32076 | -33.34065 | 35974 ft | 472 kts | 209° |
| 2026-05-05 21:14 | -2.37879 | -33.37144 | 35976 ft | 472 kts | 209° |
| 2026-05-05 21:15 | -2.43622 | -33.40191 | 35981 ft | 472 kts | 209° |
| 2026-05-05 21:15 | -2.49443 | -33.43279 | 35979 ft | 472 kts | 209° |
| 2026-05-05 21:16 | -2.55231 | -33.46351 | 35983 ft | 472 kts | 210° |
| 2026-05-05 21:16 | -2.61017 | -33.49422 | 35981 ft | 472 kts | 210° |
| 2026-05-05 21:17 | -2.66839 | -33.52508 | 35978 ft | 472 kts | 209° |
| 2026-05-05 21:17 | -2.72635 | -33.55569 | 35979 ft | 472 kts | 209° |
| 2026-05-05 21:18 | -2.78444 | -33.58637 | 35981 ft | 472 kts | 209° |
| 2026-05-05 21:18 | -2.84254 | -33.61708 | 35978 ft | 473 kts | 209° |
| 2026-05-05 21:19 | -2.90084 | -33.64791 | 35982 ft | 473 kts | 210° |
| 2026-05-05 21:19 | -2.95887 | -33.67861 | 35981 ft | 473 kts | 210° |
| 2026-05-05 21:20 | -3.01705 | -33.70938 | 35982 ft | 473 kts | 210° |
| 2026-05-05 21:20 | -3.07501 | -33.74004 | 35980 ft | 473 kts | 210° |
| 2026-05-05 21:21 | -3.13300 | -33.77072 | 35975 ft | 472 kts | 210° |
| 2026-05-05 21:21 | -3.19133 | -33.80159 | 35987 ft | 472 kts | 210° |
| 2026-05-05 21:22 | -3.24912 | -33.83217 | 35978 ft | 472 kts | 210° |
| 2026-05-05 21:22 | -3.30723 | -33.86293 | 35976 ft | 471 kts | 210° |
| 2026-05-05 21:23 | -3.36519 | -33.89361 | 35981 ft | 471 kts | 210° |
| 2026-05-05 21:23 | -3.42275 | -33.92409 | 35981 ft | 470 kts | 210° |
| 2026-05-05 21:24 | -3.48079 | -33.95483 | 35980 ft | 470 kts | 210° |
| 2026-05-05 21:24 | -3.53843 | -33.98535 | 35981 ft | 470 kts | 210° |
| 2026-05-05 21:25 | -3.59631 | -34.01602 | 35983 ft | 470 kts | 210° |
| 2026-05-05 21:25 | -3.65398 | -34.04658 | 35984 ft | 470 kts | 210° |
| 2026-05-05 21:26 | -3.71189 | -34.07732 | 35983 ft | 471 kts | 210° |
| 2026-05-05 21:26 | -3.76019 | -34.10300 | 35985 ft | 471 kts | 210° |
| 2026-05-05 21:27 | -3.81818 | -34.13383 | 35984 ft | 471 kts | 210° |
| 2026-05-05 21:27 | -3.87581 | -34.16447 | 35981 ft | 471 kts | 210° |
| 2026-05-05 21:28 | -3.93385 | -34.19534 | 35982 ft | 471 kts | 210° |
| 2026-05-05 21:28 | -3.99168 | -34.22609 | 35981 ft | 471 kts | 210° |
| 2026-05-05 21:29 | -4.04975 | -34.25698 | 35978 ft | 471 kts | 210° |
| 2026-05-05 21:29 | -4.10747 | -34.28768 | 35986 ft | 471 kts | 210° |
| 2026-05-05 21:30 | -4.16534 | -34.31847 | 35985 ft | 472 kts | 210° |
| 2026-05-05 21:30 | -4.22340 | -34.34937 | 35983 ft | 472 kts | 210° |
| 2026-05-05 21:31 | -4.28115 | -34.38011 | 35984 ft | 472 kts | 210° |
| 2026-05-05 21:31 | -4.33922 | -34.41103 | 35984 ft | 471 kts | 210° |
| 2026-05-05 21:32 | -4.39698 | -34.44178 | 35983 ft | 471 kts | 210° |
| 2026-05-05 21:32 | -4.45496 | -34.47266 | 35983 ft | 472 kts | 210° |
| 2026-05-05 21:33 | -4.51301 | -34.50358 | 35984 ft | 472 kts | 210° |
| 2026-05-05 21:33 | -4.57112 | -34.53454 | 35984 ft | 472 kts | 210° |
| 2026-05-05 21:34 | -4.62884 | -34.56529 | 35987 ft | 472 kts | 210° |
| 2026-05-05 21:34 | -4.68696 | -34.59627 | 35986 ft | 472 kts | 210° |
| 2026-05-05 21:35 | -4.74504 | -34.62723 | 35986 ft | 473 kts | 210° |
| 2026-05-05 21:35 | -4.80297 | -34.65811 | 35987 ft | 473 kts | 210° |
| 2026-05-05 21:36 | -4.86095 | -34.68903 | 35986 ft | 473 kts | 210° |
| 2026-05-05 21:36 | -4.91901 | -34.71999 | 35987 ft | 473 kts | 210° |
| 2026-05-05 21:37 | -4.97731 | -34.75110 | 35982 ft | 473 kts | 210° |
| 2026-05-05 21:37 | -5.03532 | -34.78205 | 35990 ft | 473 kts | 210° |
| 2026-05-05 21:38 | -5.09323 | -34.81295 | 35985 ft | 473 kts | 210° |
| 2026-05-05 21:38 | -5.15120 | -34.84390 | 35982 ft | 472 kts | 210° |
| 2026-05-05 21:39 | -5.20906 | -34.87479 | 35985 ft | 472 kts | 210° |
| 2026-05-05 21:39 | -5.26725 | -34.90587 | 35984 ft | 472 kts | 210° |
| 2026-05-05 21:40 | -5.32490 | -34.93667 | 35989 ft | 472 kts | 210° |
| 2026-05-05 21:40 | -5.38281 | -34.96763 | 35988 ft | 472 kts | 211° |
| 2026-05-05 21:41 | -5.44079 | -34.99866 | 35981 ft | 472 kts | 210° |
| 2026-05-05 21:41 | -5.49862 | -35.02962 | 35984 ft | 472 kts | 210° |
| 2026-05-05 21:42 | -5.55680 | -35.06077 | 35986 ft | 473 kts | 210° |
| 2026-05-05 21:42 | -5.61462 | -35.09174 | 35994 ft | 473 kts | 210° |
| 2026-05-05 21:43 | -5.67261 | -35.12280 | 35989 ft | 473 kts | 210° |
| 2026-05-05 21:43 | -5.73070 | -35.15393 | 35974 ft | 474 kts | 210° |
| 2026-05-05 21:44 | -5.78881 | -35.18508 | 35971 ft | 474 kts | 210° |
| 2026-05-05 21:44 | -5.84692 | -35.21624 | 35967 ft | 474 kts | 210° |
| 2026-05-05 21:45 | -5.90509 | -35.24731 | 35968 ft | 474 kts | 209° |
| 2026-05-05 21:45 | -5.96577 | -35.27392 | 35975 ft | 476 kts | 205° |
| 2026-05-05 21:46 | -6.02734 | -35.29925 | 35972 ft | 477 kts | 204° |
| 2026-05-05 21:46 | -6.08834 | -35.32448 | 35976 ft | 477 kts | 205° |
| 2026-05-05 21:47 | -6.14990 | -35.35016 | 35984 ft | 477 kts | 205° |
| 2026-05-05 21:47 | -6.21083 | -35.37568 | 36008 ft | 477 kts | 205° |
| 2026-05-05 21:48 | -6.27236 | -35.40148 | 36001 ft | 478 kts | 205° |
| 2026-05-05 21:48 | -6.33361 | -35.42715 | 36003 ft | 478 kts | 205° |
| 2026-05-05 21:49 | -6.39513 | -35.45293 | 36000 ft | 478 kts | 205° |
| 2026-05-05 21:49 | -6.45623 | -35.47854 | 36005 ft | 478 kts | 205° |
| 2026-05-05 21:50 | -6.51763 | -35.50428 | 36007 ft | 478 kts | 205° |
| 2026-05-05 21:50 | -6.57898 | -35.53001 | 36012 ft | 478 kts | 205° |
| 2026-05-05 21:51 | -6.64045 | -35.55580 | 36020 ft | 478 kts | 205° |
| 2026-05-05 21:51 | -6.70179 | -35.58154 | 36021 ft | 477 kts | 205° |
| 2026-05-05 21:52 | -6.79353 | -35.62005 | 36026 ft | 477 kts | 205° |
| 2026-05-05 21:53 | -6.85486 | -35.64581 | 36022 ft | 477 kts | 205° |
| 2026-05-05 21:53 | -6.91586 | -35.67143 | 36029 ft | 477 kts | 205° |
| 2026-05-05 21:54 | -6.97727 | -35.69723 | 36029 ft | 477 kts | 205° |
| 2026-05-05 21:54 | -7.03836 | -35.72291 | 36034 ft | 477 kts | 205° |
| 2026-05-05 21:55 | -7.09976 | -35.74871 | 36042 ft | 477 kts | 205° |
| 2026-05-05 21:55 | -7.16097 | -35.77445 | 36045 ft | 477 kts | 205° |
| 2026-05-05 21:56 | -7.22187 | -35.80007 | 36048 ft | 476 kts | 205° |
| 2026-05-05 21:56 | -7.28317 | -35.82587 | 36048 ft | 476 kts | 205° |
| 2026-05-05 21:57 | -7.34395 | -35.85145 | 36050 ft | 476 kts | 205° |
| 2026-05-05 21:57 | -7.40518 | -35.87723 | 36052 ft | 476 kts | 205° |
| 2026-05-05 21:58 | -7.46652 | -35.90306 | 36043 ft | 476 kts | 205° |
| 2026-05-05 21:58 | -7.52741 | -35.92871 | 36041 ft | 476 kts | 205° |
| 2026-05-05 21:59 | -7.58845 | -35.95444 | 36043 ft | 476 kts | 205° |
| 2026-05-05 21:59 | -7.64989 | -35.98034 | 36039 ft | 477 kts | 205° |
| 2026-05-05 22:00 | -7.71104 | -36.00611 | 36047 ft | 477 kts | 205° |
| 2026-05-05 22:00 | -7.77210 | -36.03187 | 36049 ft | 477 kts | 205° |
| 2026-05-05 22:01 | -7.83312 | -36.05762 | 36047 ft | 476 kts | 205° |
| 2026-05-05 22:01 | -7.89455 | -36.08354 | 36049 ft | 476 kts | 205° |
| 2026-05-05 22:02 | -7.95575 | -36.10939 | 36048 ft | 477 kts | 205° |
| 2026-05-05 22:02 | -8.01676 | -36.13515 | 36054 ft | 477 kts | 205° |
| 2026-05-05 22:03 | -8.07806 | -36.16105 | 36058 ft | 476 kts | 205° |
| 2026-05-05 22:03 | -8.13889 | -36.18676 | 36061 ft | 477 kts | 205° |
| 2026-05-05 22:04 | -8.20034 | -36.21274 | 36063 ft | 476 kts | 205° |
| 2026-05-05 22:04 | -8.26125 | -36.23849 | 36070 ft | 476 kts | 205° |
| 2026-05-05 22:05 | -8.32221 | -36.26428 | 36072 ft | 477 kts | 205° |
| 2026-05-05 22:05 | -8.38345 | -36.29020 | 36077 ft | 476 kts | 205° |
| 2026-05-05 22:06 | -8.44457 | -36.31608 | 36079 ft | 475 kts | 205° |
| 2026-05-05 22:06 | -8.50545 | -36.34186 | 36078 ft | 475 kts | 205° |
| 2026-05-05 22:07 | -8.56658 | -36.36775 | 36089 ft | 475 kts | 205° |
| 2026-05-05 22:07 | -8.62722 | -36.39345 | 36083 ft | 474 kts | 205° |
| 2026-05-05 22:08 | -8.68827 | -36.41933 | 36086 ft | 474 kts | 205° |
| 2026-05-05 22:08 | -8.74890 | -36.44505 | 36083 ft | 474 kts | 205° |
| 2026-05-05 22:09 | -8.80954 | -36.47077 | 36087 ft | 474 kts | 205° |
| 2026-05-05 22:09 | -8.87035 | -36.49657 | 36093 ft | 474 kts | 205° |
| 2026-05-05 22:10 | -8.93135 | -36.52247 | 36091 ft | 474 kts | 205° |
| 2026-05-05 22:10 | -8.99206 | -36.54825 | 36088 ft | 474 kts | 205° |
| 2026-05-05 22:11 | -9.05265 | -36.57400 | 36083 ft | 473 kts | 205° |
| 2026-05-05 22:11 | -9.11323 | -36.59975 | 36080 ft | 474 kts | 205° |
| 2026-05-05 22:12 | -9.17424 | -36.62570 | 36081 ft | 474 kts | 206° |
| 2026-05-05 22:12 | -9.23476 | -36.65187 | 36072 ft | 473 kts | 208° |
| 2026-05-05 22:13 | -9.29272 | -36.68260 | 36083 ft | 471 kts | 211° |
| 2026-05-05 22:13 | -9.35063 | -36.71425 | 36079 ft | 472 kts | 211° |
| 2026-05-05 22:14 | -9.40847 | -36.74572 | 36074 ft | 472 kts | 211° |
| 2026-05-05 22:14 | -9.46659 | -36.77717 | 36069 ft | 472 kts | 211° |
| 2026-05-05 22:15 | -9.51475 | -36.80317 | 36070 ft | 472 kts | 211° |
| 2026-05-05 22:15 | -9.57258 | -36.83440 | 36067 ft | 472 kts | 211° |
| 2026-05-05 22:16 | -9.63079 | -36.86585 | 36067 ft | 472 kts | 211° |
| 2026-05-05 22:16 | -9.68852 | -36.89706 | 36076 ft | 472 kts | 211° |
| 2026-05-05 22:17 | -9.74654 | -36.92844 | 36064 ft | 472 kts | 211° |
| 2026-05-05 22:17 | -9.80433 | -36.95972 | 36058 ft | 472 kts | 211° |
| 2026-05-05 22:18 | -9.86200 | -36.99094 | 36064 ft | 472 kts | 211° |
| 2026-05-05 22:18 | -9.92008 | -37.02239 | 36063 ft | 471 kts | 211° |
| 2026-05-05 22:19 | -9.97765 | -37.05357 | 36066 ft | 471 kts | 211° |
| 2026-05-05 22:19 | -10.03570 | -37.08503 | 36061 ft | 471 kts | 211° |
| 2026-05-05 22:20 | -10.09333 | -37.11628 | 36064 ft | 471 kts | 211° |
| 2026-05-05 22:20 | -10.15105 | -37.14760 | 36064 ft | 471 kts | 211° |
| 2026-05-05 22:21 | -10.20901 | -37.17904 | 36062 ft | 471 kts | 211° |
| 2026-05-05 22:21 | -10.26692 | -37.21048 | 36077 ft | 471 kts | 211° |
| 2026-05-05 22:22 | -10.32462 | -37.24182 | 36067 ft | 471 kts | 211° |
| 2026-05-05 22:22 | -10.38223 | -37.27312 | 36074 ft | 471 kts | 211° |
| 2026-05-05 22:23 | -10.44025 | -37.30466 | 36070 ft | 471 kts | 211° |
| 2026-05-05 22:23 | -10.49787 | -37.33599 | 36074 ft | 471 kts | 211° |
| 2026-05-05 22:24 | -10.55571 | -37.36745 | 36078 ft | 471 kts | 212° |
| 2026-05-05 22:24 | -10.61331 | -37.39880 | 36072 ft | 471 kts | 212° |
| 2026-05-05 22:25 | -10.67094 | -37.43018 | 36074 ft | 470 kts | 212° |
| 2026-05-05 22:25 | -10.72876 | -37.46168 | 36075 ft | 470 kts | 212° |
| 2026-05-05 22:26 | -10.78626 | -37.49301 | 36084 ft | 470 kts | 212° |
| 2026-05-05 22:26 | -10.84371 | -37.52433 | 36067 ft | 470 kts | 212° |
| 2026-05-05 22:27 | -10.90143 | -37.55582 | 36081 ft | 469 kts | 212° |
| 2026-05-05 22:27 | -10.95871 | -37.58707 | 36087 ft | 468 kts | 212° |
| 2026-05-05 22:28 | -11.01603 | -37.61837 | 36065 ft | 468 kts | 212° |
| 2026-05-05 22:28 | -11.07323 | -37.64961 | 36095 ft | 467 kts | 212° |
| 2026-05-05 22:29 | -11.13052 | -37.68092 | 36094 ft | 467 kts | 212° |
| 2026-05-05 22:29 | -11.18776 | -37.71221 | 36078 ft | 467 kts | 212° |
| 2026-05-05 22:30 | -11.24526 | -37.74365 | 36081 ft | 467 kts | 212° |
| 2026-05-05 22:30 | -11.30243 | -37.77494 | 36079 ft | 467 kts | 212° |
| 2026-05-05 22:31 | -11.35961 | -37.80625 | 36086 ft | 467 kts | 212° |
| 2026-05-05 22:31 | -11.41661 | -37.83747 | 36088 ft | 467 kts | 212° |
| 2026-05-05 22:32 | -11.47325 | -37.86957 | 36090 ft | 465 kts | 217° |
| 2026-05-05 22:32 | -11.52593 | -37.90749 | 36091 ft | 463 kts | 219° |
| 2026-05-05 22:33 | -11.57824 | -37.94607 | 36088 ft | 463 kts | 219° |
| 2026-05-05 22:33 | -11.63032 | -37.98426 | 36087 ft | 463 kts | 219° |
| 2026-05-05 22:34 | -11.68263 | -38.02242 | 36095 ft | 462 kts | 219° |
| 2026-05-05 22:34 | -11.73500 | -38.06059 | 36092 ft | 462 kts | 219° |
| 2026-05-05 22:35 | -11.78734 | -38.09875 | 36096 ft | 462 kts | 219° |
| 2026-05-05 22:35 | -11.83945 | -38.13676 | 36095 ft | 462 kts | 219° |
| 2026-05-05 22:36 | -11.89168 | -38.17489 | 36098 ft | 461 kts | 219° |
| 2026-05-05 22:36 | -11.94380 | -38.21297 | 36098 ft | 461 kts | 219° |
| 2026-05-05 22:37 | -11.99592 | -38.25105 | 36099 ft | 460 kts | 219° |
| 2026-05-05 22:37 | -12.04772 | -38.28891 | 36097 ft | 460 kts | 219° |
| 2026-05-05 22:38 | -12.09997 | -38.32714 | 36100 ft | 460 kts | 219° |
| 2026-05-05 22:38 | -12.15176 | -38.36504 | 36102 ft | 460 kts | 219° |
| 2026-05-05 22:39 | -12.20370 | -38.40307 | 36099 ft | 460 kts | 219° |
| 2026-05-05 22:39 | -12.25587 | -38.44129 | 36097 ft | 460 kts | 218° |
| 2026-05-05 22:40 | -12.30761 | -38.47920 | 36100 ft | 459 kts | 219° |
| 2026-05-05 22:40 | -12.35974 | -38.51743 | 36108 ft | 459 kts | 219° |
| 2026-05-05 22:41 | -12.41145 | -38.55537 | 36101 ft | 459 kts | 219° |
| 2026-05-05 22:41 | -12.46351 | -38.59358 | 36099 ft | 459 kts | 219° |
| 2026-05-05 22:42 | -12.51523 | -38.63156 | 36098 ft | 459 kts | 219° |
| 2026-05-05 22:42 | -12.56694 | -38.66956 | 36100 ft | 459 kts | 218° |
| 2026-05-05 22:43 | -12.61884 | -38.70771 | 36108 ft | 458 kts | 219° |
| 2026-05-05 22:43 | -12.67047 | -38.74569 | 36103 ft | 458 kts | 219° |
| 2026-05-05 22:44 | -12.72216 | -38.78373 | 36101 ft | 458 kts | 219° |
| 2026-05-05 22:44 | -12.77383 | -38.82178 | 36097 ft | 458 kts | 219° |
| 2026-05-05 22:45 | -12.82557 | -38.85991 | 36104 ft | 457 kts | 219° |
| 2026-05-05 22:45 | -12.87699 | -38.89783 | 36111 ft | 457 kts | 219° |
| 2026-05-05 22:46 | -12.92852 | -38.93600 | 36106 ft | 457 kts | 219° |
| 2026-05-05 22:46 | -12.98018 | -38.97437 | 36104 ft | 457 kts | 219° |
| 2026-05-05 22:47 | -13.03157 | -39.01254 | 36100 ft | 457 kts | 219° |
| 2026-05-05 22:47 | -13.08306 | -39.05080 | 36109 ft | 457 kts | 219° |
| 2026-05-05 22:48 | -13.13466 | -39.08914 | 36118 ft | 458 kts | 219° |
| 2026-05-05 22:48 | -13.18613 | -39.12742 | 36108 ft | 458 kts | 219° |
| 2026-05-05 22:49 | -13.23770 | -39.16578 | 36114 ft | 458 kts | 219° |
| 2026-05-05 22:49 | -13.28921 | -39.20413 | 36119 ft | 458 kts | 219° |
| 2026-05-05 22:50 | -13.34080 | -39.24257 | 36115 ft | 458 kts | 219° |
| 2026-05-05 22:50 | -13.39233 | -39.28097 | 36121 ft | 458 kts | 219° |
| 2026-05-05 22:51 | -13.44365 | -39.31924 | 36129 ft | 458 kts | 219° |
| 2026-05-05 22:51 | -13.49524 | -39.35777 | 36124 ft | 458 kts | 219° |
| 2026-05-05 22:52 | -13.54668 | -39.39628 | 36123 ft | 457 kts | 219° |
| 2026-05-05 22:52 | -13.59776 | -39.43454 | 36130 ft | 456 kts | 219° |
| 2026-05-05 22:53 | -13.64910 | -39.47301 | 36138 ft | 457 kts | 219° |
| 2026-05-05 22:53 | -13.70037 | -39.51145 | 36142 ft | 457 kts | 219° |
| 2026-05-05 22:54 | -13.75156 | -39.54987 | 36138 ft | 457 kts | 219° |
| 2026-05-05 22:54 | -13.80302 | -39.58848 | 36140 ft | 456 kts | 219° |
| 2026-05-05 22:55 | -13.85410 | -39.62685 | 36141 ft | 456 kts | 219° |
| 2026-05-05 22:55 | -13.90513 | -39.66519 | 36136 ft | 455 kts | 219° |
| 2026-05-05 22:56 | -13.95614 | -39.70354 | 36147 ft | 455 kts | 219° |
| 2026-05-05 22:56 | -14.00732 | -39.74205 | 36145 ft | 455 kts | 219° |
| 2026-05-05 22:57 | -14.05826 | -39.78039 | 36142 ft | 455 kts | 219° |
| 2026-05-05 22:57 | -14.10937 | -39.81888 | 36145 ft | 455 kts | 219° |
| 2026-05-05 22:58 | -14.16048 | -39.85741 | 36145 ft | 455 kts | 219° |
| 2026-05-05 22:58 | -14.21140 | -39.89579 | 36140 ft | 454 kts | 219° |
| 2026-05-05 22:59 | -14.26250 | -39.93435 | 36144 ft | 454 kts | 219° |
| 2026-05-05 22:59 | -14.31336 | -39.97274 | 36150 ft | 454 kts | 219° |
| 2026-05-05 23:00 | -14.38962 | -40.03035 | 36229 ft | 457 kts | 219° |
| 2026-05-05 23:00 | -14.41535 | -40.04981 | 36625 ft | 454 kts | 219° |
| 2026-05-05 23:00 | -14.44089 | -40.06910 | 37150 ft | 449 kts | 219° |
| 2026-05-05 23:01 | -14.46568 | -40.08784 | 37545 ft | 446 kts | 219° |
| 2026-05-05 23:01 | -14.49072 | -40.10679 | 37917 ft | 445 kts | 219° |
| 2026-05-05 23:01 | -14.51576 | -40.12576 | 38084 ft | 447 kts | 219° |
| 2026-05-05 23:01 | -14.54096 | -40.14485 | 38115 ft | 448 kts | 219° |
| 2026-05-05 23:02 | -14.59113 | -40.18284 | 38166 ft | 446 kts | 219° |
| 2026-05-05 23:02 | -14.64091 | -40.22053 | 38162 ft | 444 kts | 219° |
| 2026-05-05 23:03 | -14.69040 | -40.25804 | 38167 ft | 442 kts | 219° |
| 2026-05-05 23:03 | -14.74007 | -40.29573 | 38172 ft | 441 kts | 219° |
| 2026-05-05 23:04 | -14.78949 | -40.33325 | 38184 ft | 440 kts | 219° |
| 2026-05-05 23:04 | -14.83881 | -40.37072 | 38194 ft | 440 kts | 219° |
| 2026-05-05 23:05 | -14.88822 | -40.40828 | 38190 ft | 441 kts | 219° |
| 2026-05-05 23:05 | -14.93756 | -40.44581 | 38201 ft | 441 kts | 219° |
| 2026-05-05 23:06 | -14.98710 | -40.48349 | 38190 ft | 442 kts | 219° |
| 2026-05-05 23:06 | -15.03648 | -40.52110 | 38205 ft | 443 kts | 219° |
| 2026-05-05 23:07 | -15.08624 | -40.55902 | 38188 ft | 444 kts | 219° |
| 2026-05-05 23:07 | -15.13612 | -40.59705 | 38173 ft | 444 kts | 219° |
| 2026-05-05 23:08 | -15.18574 | -40.63489 | 38186 ft | 444 kts | 219° |
| 2026-05-05 23:08 | -15.23539 | -40.67277 | 38189 ft | 443 kts | 219° |
| 2026-05-05 23:09 | -15.28478 | -40.71050 | 38205 ft | 442 kts | 219° |
| 2026-05-05 23:09 | -15.33444 | -40.74844 | 38202 ft | 442 kts | 219° |
| 2026-05-05 23:10 | -15.38381 | -40.78620 | 38181 ft | 441 kts | 219° |
| 2026-05-05 23:10 | -15.43307 | -40.82388 | 38189 ft | 440 kts | 219° |
| 2026-05-05 23:11 | -15.47409 | -40.85529 | 38189 ft | 440 kts | 219° |
| 2026-05-05 23:11 | -15.52318 | -40.89288 | 38201 ft | 440 kts | 219° |
| 2026-05-05 23:12 | -15.58067 | -40.93695 | 38190 ft | 440 kts | 219° |
| 2026-05-05 23:12 | -15.62177 | -40.96847 | 38194 ft | 440 kts | 219° |
| 2026-05-05 23:13 | -15.67112 | -41.00634 | 38204 ft | 440 kts | 219° |
| 2026-05-05 23:13 | -15.72014 | -41.04398 | 38196 ft | 440 kts | 219° |
| 2026-05-05 23:14 | -15.76923 | -41.08170 | 38204 ft | 440 kts | 219° |
| 2026-05-05 23:14 | -15.81866 | -41.11970 | 38200 ft | 441 kts | 219° |
| 2026-05-05 23:15 | -15.86771 | -41.15743 | 38200 ft | 441 kts | 219° |
| 2026-05-05 23:15 | -15.91716 | -41.19550 | 38205 ft | 441 kts | 219° |
| 2026-05-05 23:16 | -15.96633 | -41.23338 | 38214 ft | 441 kts | 219° |
| 2026-05-05 23:16 | -16.01554 | -41.27131 | 38202 ft | 442 kts | 219° |
| 2026-05-05 23:17 | -16.06489 | -41.30938 | 38200 ft | 442 kts | 219° |
| 2026-05-05 23:17 | -16.11411 | -41.34739 | 38199 ft | 442 kts | 219° |
| 2026-05-05 23:18 | -16.16354 | -41.38559 | 38205 ft | 441 kts | 219° |
| 2026-05-05 23:18 | -16.21294 | -41.42380 | 38208 ft | 442 kts | 218° |
| 2026-05-05 23:19 | -16.26211 | -41.46185 | 38200 ft | 442 kts | 218° |
| 2026-05-05 23:19 | -16.31146 | -41.50005 | 38201 ft | 441 kts | 219° |
| 2026-05-05 23:20 | -16.36064 | -41.53816 | 38198 ft | 442 kts | 219° |
| 2026-05-05 23:20 | -16.40987 | -41.57632 | 38200 ft | 441 kts | 218° |
| 2026-05-05 23:21 | -16.45897 | -41.61442 | 38197 ft | 441 kts | 218° |
| 2026-05-05 23:21 | -16.50824 | -41.65267 | 38193 ft | 441 kts | 218° |
| 2026-05-05 23:22 | -16.55756 | -41.69098 | 38194 ft | 440 kts | 218° |
| 2026-05-05 23:22 | -16.60656 | -41.72907 | 38191 ft | 440 kts | 218° |
| 2026-05-05 23:23 | -16.65543 | -41.76708 | 38205 ft | 440 kts | 218° |
| 2026-05-05 23:23 | -16.70431 | -41.80512 | 38195 ft | 439 kts | 218° |
| 2026-05-05 23:24 | -16.75324 | -41.84324 | 38191 ft | 439 kts | 218° |
| 2026-05-05 23:24 | -16.80207 | -41.88131 | 38183 ft | 439 kts | 218° |
| 2026-05-05 23:25 | -16.85113 | -41.91957 | 38183 ft | 438 kts | 218° |
| 2026-05-05 23:25 | -16.89977 | -41.95752 | 38192 ft | 437 kts | 218° |
| 2026-05-05 23:26 | -16.94856 | -41.99558 | 38179 ft | 438 kts | 218° |
| 2026-05-05 23:26 | -16.99750 | -42.03379 | 38185 ft | 437 kts | 218° |
| 2026-05-05 23:27 | -17.04605 | -42.07172 | 38186 ft | 438 kts | 218° |
| 2026-05-05 23:27 | -17.09472 | -42.10980 | 38197 ft | 438 kts | 218° |
| 2026-05-05 23:28 | -17.14345 | -42.14794 | 38204 ft | 438 kts | 218° |
| 2026-05-05 23:28 | -17.19217 | -42.18610 | 38198 ft | 438 kts | 218° |
| 2026-05-05 23:29 | -17.24126 | -42.22433 | 38193 ft | 438 kts | 217° |
| 2026-05-05 23:29 | -17.29064 | -42.26160 | 38207 ft | 437 kts | 217° |
| 2026-05-05 23:30 | -17.33979 | -42.29853 | 38211 ft | 437 kts | 217° |
| 2026-05-05 23:30 | -17.38923 | -42.33583 | 38222 ft | 436 kts | 217° |
| 2026-05-05 23:31 | -17.43848 | -42.37308 | 38217 ft | 436 kts | 217° |
| 2026-05-05 23:31 | -17.48736 | -42.41012 | 38222 ft | 436 kts | 217° |
| 2026-05-05 23:32 | -17.53651 | -42.44740 | 38208 ft | 436 kts | 217° |
| 2026-05-05 23:32 | -17.58574 | -42.48478 | 38203 ft | 436 kts | 217° |
| 2026-05-05 23:33 | -17.63474 | -42.52200 | 38206 ft | 436 kts | 217° |
| 2026-05-05 23:33 | -17.68400 | -42.55945 | 38208 ft | 436 kts | 217° |
| 2026-05-05 23:34 | -17.73303 | -42.59674 | 38210 ft | 436 kts | 217° |
| 2026-05-05 23:34 | -17.78217 | -42.63416 | 38214 ft | 436 kts | 217° |
| 2026-05-05 23:35 | -17.83118 | -42.67149 | 38213 ft | 436 kts | 217° |
| 2026-05-05 23:35 | -17.87999 | -42.70870 | 38212 ft | 435 kts | 217° |
| 2026-05-05 23:36 | -17.92894 | -42.74603 | 38222 ft | 435 kts | 217° |
| 2026-05-05 23:36 | -17.97790 | -42.78341 | 38221 ft | 435 kts | 217° |
| 2026-05-05 23:37 | -18.02681 | -42.82078 | 38212 ft | 436 kts | 217° |
| 2026-05-05 23:37 | -18.07593 | -42.85833 | 38212 ft | 435 kts | 217° |
| 2026-05-05 23:38 | -18.12472 | -42.89564 | 38232 ft | 435 kts | 217° |
| 2026-05-05 23:38 | -18.17350 | -42.93299 | 38219 ft | 435 kts | 217° |
| 2026-05-05 23:39 | -18.22231 | -42.97038 | 38220 ft | 435 kts | 217° |
| 2026-05-05 23:39 | -18.27139 | -43.00800 | 38230 ft | 434 kts | 217° |
| 2026-05-05 23:40 | -18.31994 | -43.04525 | 38222 ft | 434 kts | 217° |
| 2026-05-05 23:40 | -18.36882 | -43.08277 | 38224 ft | 434 kts | 217° |
| 2026-05-05 23:41 | -18.41758 | -43.12023 | 38225 ft | 433 kts | 217° |
| 2026-05-05 23:41 | -18.46628 | -43.15767 | 38225 ft | 433 kts | 217° |
| 2026-05-05 23:42 | -18.51495 | -43.19512 | 38226 ft | 433 kts | 217° |
| 2026-05-05 23:42 | -18.56329 | -43.23234 | 38240 ft | 433 kts | 217° |
| 2026-05-05 23:43 | -18.61195 | -43.26983 | 38233 ft | 433 kts | 217° |
| 2026-05-05 23:43 | -18.66072 | -43.30743 | 38232 ft | 433 kts | 217° |
| 2026-05-05 23:44 | -18.70935 | -43.34495 | 38221 ft | 434 kts | 217° |
| 2026-05-05 23:44 | -18.75807 | -43.38257 | 38235 ft | 434 kts | 217° |
| 2026-05-05 23:45 | -18.80663 | -43.42009 | 38221 ft | 435 kts | 217° |
| 2026-05-05 23:45 | -18.85532 | -43.45775 | 38229 ft | 435 kts | 217° |
| 2026-05-05 23:46 | -18.90432 | -43.49566 | 38228 ft | 434 kts | 217° |
| 2026-05-05 23:46 | -18.95278 | -43.53320 | 38231 ft | 434 kts | 217° |
| 2026-05-05 23:47 | -19.00151 | -43.57097 | 38228 ft | 433 kts | 217° |
| 2026-05-05 23:47 | -19.04993 | -43.60851 | 38235 ft | 433 kts | 217° |
| 2026-05-05 23:48 | -19.09863 | -43.64631 | 38225 ft | 432 kts | 217° |
| 2026-05-05 23:48 | -19.14689 | -43.68380 | 38231 ft | 431 kts | 216° |
| 2026-05-05 23:49 | -19.19528 | -43.72141 | 38226 ft | 431 kts | 217° |
| 2026-05-05 23:49 | -19.24343 | -43.75887 | 38224 ft | 431 kts | 217° |
| 2026-05-05 23:50 | -19.29180 | -43.79652 | 38222 ft | 430 kts | 217° |
| 2026-05-05 23:50 | -19.33985 | -43.83395 | 38229 ft | 430 kts | 216° |
| 2026-05-05 23:51 | -19.38804 | -43.87152 | 38251 ft | 430 kts | 216° |
| 2026-05-05 23:51 | -19.43637 | -43.90923 | 38265 ft | 430 kts | 216° |
| 2026-05-05 23:52 | -19.48460 | -43.94689 | 38283 ft | 430 kts | 216° |
| 2026-05-05 23:52 | -19.53282 | -43.98456 | 38294 ft | 430 kts | 216° |
| 2026-05-05 23:53 | -19.58077 | -44.02206 | 38290 ft | 430 kts | 216° |
| 2026-05-05 23:53 | -19.62912 | -44.05990 | 38287 ft | 430 kts | 216° |
| 2026-05-05 23:54 | -19.67693 | -44.09735 | 38214 ft | 429 kts | 216° |
| 2026-05-05 23:54 | -19.72484 | -44.13490 | 38229 ft | 428 kts | 216° |
| 2026-05-05 23:55 | -19.77285 | -44.17256 | 38216 ft | 428 kts | 216° |
| 2026-05-05 23:55 | -19.82094 | -44.21030 | 38222 ft | 429 kts | 216° |
| 2026-05-05 23:56 | -19.86865 | -44.24778 | 38230 ft | 429 kts | 216° |
| 2026-05-05 23:56 | -19.91669 | -44.28554 | 38215 ft | 429 kts | 216° |
| 2026-05-05 23:57 | -19.96464 | -44.32328 | 38222 ft | 429 kts | 216° |
| 2026-05-05 23:57 | -20.01268 | -44.36110 | 38228 ft | 429 kts | 216° |
| 2026-05-05 23:58 | -20.06031 | -44.39864 | 38222 ft | 429 kts | 216° |
| 2026-05-05 23:58 | -20.10819 | -44.43640 | 38237 ft | 428 kts | 216° |
| 2026-05-05 23:59 | -20.15614 | -44.47423 | 38224 ft | 428 kts | 216° |
| 2026-05-05 23:59 | -20.20398 | -44.51202 | 38228 ft | 428 kts | 216° |
| 2026-05-06 00:00 | -20.25179 | -44.54982 | 38228 ft | 427 kts | 216° |
| 2026-05-06 00:00 | -20.29923 | -44.58735 | 38234 ft | 428 kts | 216° |
| 2026-05-06 00:01 | -20.34704 | -44.62519 | 38222 ft | 428 kts | 216° |
| 2026-05-06 00:01 | -20.38667 | -44.65660 | 38223 ft | 427 kts | 216° |
| 2026-05-06 00:02 | -20.43434 | -44.69440 | 38230 ft | 426 kts | 216° |
| 2026-05-06 00:02 | -20.48180 | -44.73205 | 38230 ft | 426 kts | 216° |
| 2026-05-06 00:03 | -20.53706 | -44.77594 | 38228 ft | 426 kts | 217° |
| 2026-05-06 00:03 | -20.57687 | -44.80757 | 38235 ft | 426 kts | 217° |
| 2026-05-06 00:04 | -20.62435 | -44.84534 | 38231 ft | 425 kts | 216° |
| 2026-05-06 00:04 | -20.67150 | -44.88287 | 38226 ft | 424 kts | 216° |
| 2026-05-06 00:05 | -20.74252 | -44.93945 | 38231 ft | 424 kts | 217° |
| 2026-05-06 00:06 | -20.78952 | -44.97695 | 38238 ft | 424 kts | 217° |
| 2026-05-06 00:06 | -20.83686 | -45.01473 | 38229 ft | 424 kts | 217° |
| 2026-05-06 00:07 | -20.88425 | -45.05260 | 38235 ft | 425 kts | 217° |
| 2026-05-06 00:07 | -20.93171 | -45.09053 | 38226 ft | 426 kts | 217° |
| 2026-05-06 00:08 | -20.97923 | -45.12856 | 38220 ft | 426 kts | 217° |
| 2026-05-06 00:08 | -21.02646 | -45.16638 | 38216 ft | 427 kts | 217° |
| 2026-05-06 00:09 | -21.07394 | -45.20445 | 38227 ft | 426 kts | 217° |
| 2026-05-06 00:09 | -21.12139 | -45.24251 | 38216 ft | 425 kts | 217° |
| 2026-05-06 00:10 | -21.16868 | -45.28046 | 38219 ft | 424 kts | 217° |
| 2026-05-06 00:10 | -21.21582 | -45.31834 | 38217 ft | 423 kts | 217° |
| 2026-05-06 00:11 | -21.26264 | -45.35598 | 38227 ft | 422 kts | 217° |
| 2026-05-06 00:11 | -21.30967 | -45.39383 | 38217 ft | 422 kts | 217° |
| 2026-05-06 00:12 | -21.35665 | -45.43167 | 38219 ft | 421 kts | 217° |
| 2026-05-06 00:12 | -21.40349 | -45.46942 | 38214 ft | 420 kts | 217° |
| 2026-05-06 00:13 | -21.44996 | -45.50691 | 38222 ft | 420 kts | 217° |
| 2026-05-06 00:13 | -21.49665 | -45.54461 | 38218 ft | 420 kts | 217° |
| 2026-05-06 00:14 | -21.54335 | -45.58235 | 38217 ft | 419 kts | 217° |
| 2026-05-06 00:14 | -21.58995 | -45.62004 | 38217 ft | 419 kts | 217° |
| 2026-05-06 00:14 | -21.61335 | -45.63897 | 37873 ft | 425 kts | 217° |
| 2026-05-06 00:15 | -21.63713 | -45.65822 | 37265 ft | 427 kts | 217° |
| 2026-05-06 00:15 | -21.66075 | -45.67735 | 36740 ft | 422 kts | 217° |
| 2026-05-06 00:15 | -21.68408 | -45.69625 | 36239 ft | 418 kts | 217° |
| 2026-05-06 00:15 | -21.70690 | -45.71475 | 35758 ft | 414 kts | 217° |
| 2026-05-06 00:16 | -21.72986 | -45.73337 | 35243 ft | 412 kts | 217° |
| 2026-05-06 00:16 | -21.75296 | -45.75212 | 34739 ft | 417 kts | 217° |
| 2026-05-06 00:16 | -21.77634 | -45.77109 | 34212 ft | 423 kts | 217° |
| 2026-05-06 00:16 | -21.80003 | -45.79033 | 33625 ft | 429 kts | 217° |
| 2026-05-06 00:17 | -21.82399 | -45.80979 | 33089 ft | 433 kts | 217° |
| 2026-05-06 00:17 | -21.84809 | -45.82937 | 32547 ft | 436 kts | 217° |
| 2026-05-06 00:17 | -21.87212 | -45.84891 | 32029 ft | 440 kts | 217° |
| 2026-05-06 00:17 | -21.89661 | -45.86884 | 31477 ft | 438 kts | 217° |
| 2026-05-06 00:18 | -21.92056 | -45.88832 | 30961 ft | 421 kts | 217° |
| 2026-05-06 00:18 | -21.94380 | -45.90725 | 30480 ft | 420 kts | 217° |
| 2026-05-06 00:18 | -21.96727 | -45.92636 | 29925 ft | 425 kts | 217° |
| 2026-05-06 00:18 | -21.99098 | -45.94567 | 29347 ft | 429 kts | 217° |
| 2026-05-06 00:19 | -22.01487 | -45.96514 | 28812 ft | 432 kts | 217° |
| 2026-05-06 00:19 | -22.03897 | -45.98479 | 28265 ft | 434 kts | 217° |
| 2026-05-06 00:19 | -22.06285 | -46.00426 | 27747 ft | 437 kts | 217° |
| 2026-05-06 00:19 | -22.08720 | -46.02414 | 27213 ft | 439 kts | 217° |
| 2026-05-06 00:20 | -22.11107 | -46.04363 | 26659 ft | 419 kts | 217° |
| 2026-05-06 00:20 | -22.13374 | -46.06216 | 26172 ft | 400 kts | 217° |
| 2026-05-06 00:20 | -22.15554 | -46.07999 | 25709 ft | 389 kts | 217° |
| 2026-05-06 00:20 | -22.17723 | -46.09772 | 25277 ft | 394 kts | 217° |
| 2026-05-06 00:21 | -22.19927 | -46.11573 | 24799 ft | 401 kts | 217° |
| 2026-05-06 00:21 | -22.22153 | -46.13395 | 24302 ft | 397 kts | 217° |
| 2026-05-06 00:21 | -22.24318 | -46.15169 | 23844 ft | 385 kts | 217° |
| 2026-05-06 00:21 | -22.26446 | -46.16911 | 23343 ft | 391 kts | 217° |
| 2026-05-06 00:22 | -22.28629 | -46.18699 | 22860 ft | 397 kts | 217° |
| 2026-05-06 00:22 | -22.30874 | -46.20479 | 22360 ft | 399 kts | 212° |
| 2026-05-06 00:22 | -22.33382 | -46.21634 | 21849 ft | 384 kts | 192° |
| 2026-05-06 00:22 | -22.35995 | -46.22041 | 21458 ft | 381 kts | 187° |
| 2026-05-06 00:23 | -22.38615 | -46.22404 | 21011 ft | 387 kts | 188° |
| 2026-05-06 00:23 | -22.41315 | -46.22800 | 20562 ft | 394 kts | 188° |
| 2026-05-06 00:23 | -22.44062 | -46.23216 | 20091 ft | 401 kts | 188° |
| 2026-05-06 00:23 | -22.46799 | -46.23639 | 19580 ft | 387 kts | 188° |
| 2026-05-06 00:24 | -22.49402 | -46.24045 | 19168 ft | 382 kts | 188° |
| 2026-05-06 00:24 | -22.52067 | -46.24462 | 18713 ft | 390 kts | 188° |
| 2026-05-06 00:24 | -22.54782 | -46.24887 | 18219 ft | 397 kts | 188° |
| 2026-05-06 00:24 | -22.57495 | -46.25309 | 17996 ft | 388 kts | 188° |
| 2026-05-06 00:25 | -22.60139 | -46.25720 | 17744 ft | 378 kts | 188° |
| 2026-05-06 00:25 | -22.62679 | -46.26114 | 17513 ft | 368 kts | 188° |
| 2026-05-06 00:25 | -22.65185 | -46.26503 | 17317 ft | 358 kts | 188° |
| 2026-05-06 00:25 | -22.67622 | -46.26882 | 17113 ft | 350 kts | 188° |
| 2026-05-06 00:26 | -22.70033 | -46.27257 | 16933 ft | 347 kts | 188° |
| 2026-05-06 00:26 | -22.72425 | -46.27629 | 16730 ft | 346 kts | 188° |
| 2026-05-06 00:26 | -22.74813 | -46.28001 | 16540 ft | 346 kts | 188° |
| 2026-05-06 00:26 | -22.77162 | -46.28369 | 16344 ft | 343 kts | 189° |
| 2026-05-06 00:27 | -22.79429 | -46.29101 | 16030 ft | 341 kts | 207° |
| 2026-05-06 00:27 | -22.81484 | -46.30398 | 15728 ft | 342 kts | 210° |
| 2026-05-06 00:27 | -22.83554 | -46.31726 | 15412 ft | 347 kts | 209° |
| 2026-05-06 00:27 | -22.85644 | -46.33051 | 15065 ft | 349 kts | 209° |
| 2026-05-06 00:28 | -22.87747 | -46.34374 | 14717 ft | 347 kts | 208° |
| 2026-05-06 00:28 | -22.89804 | -46.35662 | 14373 ft | 344 kts | 208° |
| 2026-05-06 00:28 | -22.91868 | -46.36949 | 14026 ft | 340 kts | 210° |
| 2026-05-06 00:28 | -22.93908 | -46.38219 | 13655 ft | 337 kts | 209° |
| 2026-05-06 00:29 | -22.95935 | -46.39479 | 13312 ft | 333 kts | 209° |
| 2026-05-06 00:29 | -22.97941 | -46.40724 | 12980 ft | 330 kts | 209° |
| 2026-05-06 00:29 | -22.99928 | -46.41958 | 12651 ft | 327 kts | 209° |
| 2026-05-06 00:29 | -23.01894 | -46.43180 | 12330 ft | 325 kts | 209° |
| 2026-05-06 00:30 | -23.03841 | -46.44389 | 12026 ft | 328 kts | 208° |
| 2026-05-06 00:30 | -23.05834 | -46.45627 | 11702 ft | 330 kts | 208° |
| 2026-05-06 00:30 | -23.07822 | -46.46864 | 11377 ft | 330 kts | 209° |
| 2026-05-06 00:30 | -23.09811 | -46.48102 | 11090 ft | 328 kts | 209° |
| 2026-05-06 00:31 | -23.11746 | -46.49307 | 10712 ft | 312 kts | 209° |
| 2026-05-06 00:31 | -23.13587 | -46.50453 | 10409 ft | 298 kts | 208° |
| 2026-05-06 00:31 | -23.15354 | -46.51554 | 10129 ft | 290 kts | 208° |
| 2026-05-06 00:31 | -23.17105 | -46.52645 | 9826 ft | 288 kts | 208° |
| 2026-05-06 00:32 | -23.18816 | -46.53711 | 9536 ft | 285 kts | 208° |
| 2026-05-06 00:32 | -23.20530 | -46.54780 | 9289 ft | 282 kts | 208° |
| 2026-05-06 00:32 | -23.22205 | -46.55894 | 8996 ft | 281 kts | 212° |
| 2026-05-06 00:32 | -23.23859 | -46.57079 | 8623 ft | 292 kts | 212° |
| 2026-05-06 00:33 | -23.25605 | -46.58331 | 8250 ft | 305 kts | 212° |
| 2026-05-06 00:33 | -23.27400 | -46.59617 | 7778 ft | 312 kts | 212° |
| 2026-05-06 00:33 | -23.29180 | -46.60887 | 7431 ft | 295 kts | 212° |
| 2026-05-06 00:33 | -23.30829 | -46.62061 | 7070 ft | 276 kts | 211° |
| 2026-05-06 00:34 | -23.32442 | -46.63211 | 7131 ft | 280 kts | 211° |
| 2026-05-06 00:34 | -23.34093 | -46.64380 | 6972 ft | 283 kts | 211° |
| 2026-05-06 00:34 | -23.35718 | -46.65531 | 6777 ft | 280 kts | 211° |
| 2026-05-06 00:34 | -23.37341 | -46.66686 | 6564 ft | 275 kts | 211° |
| 2026-05-06 00:35 | -23.38930 | -46.67817 | 6349 ft | 270 kts | 211° |
| 2026-05-06 00:35 | -23.40521 | -46.68786 | 6132 ft | 260 kts | 194° |
| 2026-05-06 00:35 | -23.42268 | -46.68888 | 5985 ft | 247 kts | 165° |
| 2026-05-06 00:35 | -23.43797 | -46.68158 | 5808 ft | 237 kts | 144° |
| 2026-05-06 00:36 | -23.44967 | -46.66974 | 5525 ft | 229 kts | 127° |
| 2026-05-06 00:36 | -23.45880 | -46.65567 | 5303 ft | 223 kts | 123° |
| 2026-05-06 00:36 | -23.46727 | -46.64184 | 5048 ft | 214 kts | 122° |
| 2026-05-06 00:36 | -23.47236 | -46.62778 | 4791 ft | 194 kts | 93° |
| 2026-05-06 00:37 | -23.47133 | -46.61396 | 4623 ft | 172 kts | 81° |
| 2026-05-06 00:37 | -23.46939 | -46.60205 | 4437 ft | 150 kts | 80° |
| 2026-05-06 00:37 | -23.46704 | -46.59110 | 4314 ft | 149 kts | 76° |
| 2026-05-06 00:37 | -23.46416 | -46.58016 | 4192 ft | 148 kts | 75° |
| 2026-05-06 00:38 | -23.46125 | -46.56947 | 4019 ft | 148 kts | 75° |
| 2026-05-06 00:38 | -23.45832 | -46.55868 | 3855 ft | 147 kts | 75° |
| 2026-05-06 00:38 | -23.45543 | -46.54808 | 3682 ft | 147 kts | 74° |
| 2026-05-06 00:38 | -23.45253 | -46.53741 | 3494 ft | 146 kts | 75° |
| 2026-05-06 00:39 | -23.44960 | -46.52662 | 3296 ft | 149 kts | 74° |
| 2026-05-06 00:39 | -23.44669 | -46.51574 | 3099 ft | 153 kts | 73° |
| 2026-05-06 00:39 | -23.44357 | -46.50469 | 2863 ft | 153 kts | 73° |
| 2026-05-06 00:39 | -23.44063 | -46.49372 | 2633 ft | 150 kts | 73° |
| 2026-05-06 00:40 | -23.43769 | -46.48277 | 2481 ft | 150 kts | 73° |
| 2026-05-06 00:40 | -23.43500 | -46.47292 | 2473 ft | 116 kts | 74° |
| 2026-05-06 00:40 | -23.43323 | -46.46642 | 2473 ft | 63 kts | 73° |
| 2026-05-06 00:40 | -23.43211 | -46.46363 | 2476 ft | 22 kts | 50° |
| 2026-05-06 00:41 | -23.43077 | -46.46217 | 2473 ft | 23 kts | 44° |
| 2026-05-06 00:41 | -23.43016 | -46.46163 | 2472 ft | 1 kts | 29° |
| 2026-05-06 00:41 | -23.43004 | -46.46156 | 2473 ft | 5 kts | 26° |
| 2026-05-06 00:41 | -23.42929 | -46.46151 | 2470 ft | 18 kts | 345° |
| 2026-05-06 00:42 | -23.42835 | -46.46180 | 2471 ft | 15 kts | 347° |
| 2026-05-06 00:42 | -23.42730 | -46.46208 | 2471 ft | 10 kts | 342° |
| 2026-05-06 00:42 | -23.42645 | -46.46245 | 2473 ft | 16 kts | 320° |
| 2026-05-06 00:42 | -23.42632 | -46.46341 | 2470 ft | 3 kts | 255° |
| 2026-05-06 00:43 | -23.42651 | -46.46417 | 2472 ft | 16 kts | 253° |
| 2026-05-06 00:43 | -23.42685 | -46.46540 | 2468 ft | 17 kts | 253° |
| 2026-05-06 00:43 | -23.42719 | -46.46666 | 2472 ft | 17 kts | 253° |
| 2026-05-06 00:43 | -23.42754 | -46.46790 | 2471 ft | 17 kts | 253° |
| 2026-05-06 00:44 | -23.42780 | -46.46887 | 2474 ft | 8 kts | 253° |
| 2026-05-06 00:44 | -23.42795 | -46.46944 | 2474 ft | 8 kts | 253° |
| 2026-05-06 00:44 | -23.42812 | -46.47006 | 2474 ft | 9 kts | 253° |
| 2026-05-06 00:44 | -23.42825 | -46.47086 | 2471 ft | 12 kts | 282° |
| 2026-05-06 00:45 | -23.42757 | -46.47146 | 2471 ft | 11 kts | 340° |
| 2026-05-06 00:45 | -23.42680 | -46.47171 | 2473 ft | 13 kts | 343° |
| 2026-05-06 00:45 | -23.42615 | -46.47192 | 2471 ft | 6 kts | 343° |
| 2026-05-06 00:45 | -23.42577 | -46.47204 | 2474 ft | 6 kts | 344° |
| 2026-05-06 00:46 | -23.42537 | -46.47217 | 2470 ft | 6 kts | 344° |
| 2026-05-06 00:46 | -23.42499 | -46.47236 | 2471 ft | 6 kts | 312° |
| 2026-05-06 00:46 | -23.42492 | -46.47283 | 2475 ft | 6 kts | 266° |
| 2026-05-06 00:46 | -23.42501 | -46.47326 | 2471 ft | 0 kts | 255° |
| 2026-05-06 00:47 | -23.42501 | -46.47328 | 2471 ft | 1 kts | 254° |
| 2026-05-06 00:47 | -23.42503 | -46.47335 | 2473 ft | 1 kts | 254° |
| 2026-05-06 00:47 | -23.42504 | -46.47339 | 2473 ft | 0 kts | 254° |